createdAt,value
2019-02-14T00:00:15.185Z,3.66
2019-02-14T00:02:45.947Z,3.61
2019-02-14T00:05:16.719Z,3.55
2019-02-14T00:07:45.966Z,3.42
2019-02-14T00:10:15.080Z,3.26
2019-02-14T00:12:44.218Z,3.19
2019-02-14T00:15:14.276Z,3.09
2019-02-14T00:17:43.397Z,2.96
2019-02-14T00:20:12.516Z,2.80
2019-02-14T00:22:41.634Z,2.68
2019-02-14T00:25:10.926Z,2.62
2019-02-14T00:27:40.065Z,2.63
2019-02-14T00:30:10.134Z,2.49
2019-02-14T00:32:39.418Z,2.54
2019-02-14T00:35:08.593Z,2.79
2019-02-14T00:37:37.718Z,3.01
2019-02-14T00:40:08.484Z,3.00
2019-02-14T00:42:37.597Z,3.07
2019-02-14T00:45:07.763Z,3.22
2019-02-14T00:47:36.881Z,3.40
2019-02-14T00:50:07.442Z,3.36
2019-02-14T00:52:36.557Z,3.32
2019-02-14T00:55:06.554Z,3.40
2019-02-14T00:57:35.668Z,3.53
2019-02-14T01:00:06.535Z,3.68
2019-02-14T01:02:35.953Z,3.72
2019-02-14T01:05:06.359Z,3.78
2019-02-14T01:07:35.547Z,3.85
2019-02-14T01:10:06.121Z,3.87
2019-02-14T01:12:35.239Z,3.88
2019-02-14T01:15:07.672Z,3.82
2019-02-14T01:17:36.859Z,3.88
2019-02-14T01:20:06.756Z,3.82
2019-02-14T01:22:36.364Z,3.81
2019-02-14T01:25:06.300Z,3.89
2019-02-14T01:27:35.418Z,3.90
2019-02-14T01:30:07.477Z,3.92
2019-02-14T01:32:36.664Z,3.89
2019-02-14T01:35:08.117Z,3.92
2019-02-14T01:37:37.244Z,3.90
2019-02-14T01:40:07.405Z,3.86
2019-02-14T01:42:36.529Z,3.88
2019-02-14T01:45:08.989Z,3.80
2019-02-14T01:47:38.114Z,3.80
2019-02-14T01:50:09.971Z,3.84
2019-02-14T01:52:39.092Z,3.90
2019-02-14T01:55:08.246Z,3.89
2019-02-14T01:57:37.366Z,3.91
2019-02-14T02:00:11.326Z,3.90
2019-02-14T02:02:41.914Z,3.88
2019-02-14T02:05:11.036Z,3.90
2019-02-14T02:07:40.490Z,3.86
2019-02-14T02:10:11.677Z,3.80
2019-02-14T02:12:41.077Z,3.82
2019-02-14T02:15:12.977Z,3.80
2019-02-14T02:17:42.169Z,3.82
2019-02-14T02:20:11.288Z,3.82
2019-02-14T02:22:41.478Z,3.85
2019-02-14T02:25:11.833Z,3.78
2019-02-14T02:27:40.961Z,3.84
2019-02-14T02:30:16.017Z,3.74
2019-02-14T02:32:45.140Z,3.81
2019-02-14T02:35:14.262Z,3.70
2019-02-14T02:37:43.488Z,3.59
2019-02-14T02:40:12.625Z,3.68
2019-02-14T02:42:41.749Z,3.66
2019-02-14T02:45:12.314Z,3.63
2019-02-14T02:47:41.444Z,3.69
2019-02-14T02:50:12.108Z,3.63
2019-02-14T02:52:41.316Z,3.55
2019-02-14T02:55:10.811Z,3.39
2019-02-14T02:57:39.945Z,3.18
2019-02-14T03:00:12.582Z,3.14
2019-02-14T03:02:41.728Z,3.25
2019-02-14T03:05:12.411Z,3.28
2019-02-14T03:07:41.529Z,3.34
2019-02-14T03:10:14.343Z,3.36
2019-02-14T03:12:43.458Z,3.32
2019-02-14T03:15:14.721Z,3.39
2019-02-14T03:17:43.827Z,3.41
2019-02-14T03:20:13.342Z,3.39
2019-02-14T03:22:42.811Z,3.37
2019-02-14T03:25:17.332Z,3.39
2019-02-14T03:27:46.498Z,3.35
2019-02-14T03:30:16.270Z,3.38
2019-02-14T03:32:45.423Z,3.43
2019-02-14T03:35:14.893Z,3.39
2019-02-14T03:37:44.114Z,3.39
2019-02-14T03:40:14.727Z,3.40
2019-02-14T03:42:43.867Z,3.36
2019-02-14T03:45:17.833Z,3.33
2019-02-14T03:47:46.947Z,3.36
2019-02-14T03:50:16.077Z,3.33
2019-02-14T03:52:45.184Z,3.23
2019-02-14T03:55:14.314Z,3.24
2019-02-14T03:57:44.503Z,3.22
2019-02-14T04:00:17.430Z,3.25
2019-02-14T04:02:46.576Z,3.12
2019-02-14T04:05:15.734Z,3.05
2019-02-14T04:07:45.334Z,3.09
2019-02-14T04:10:15.460Z,3.06
2019-02-14T04:12:44.598Z,3.09
2019-02-14T04:15:18.055Z,2.70
2019-02-14T04:17:47.175Z,2.48
2019-02-14T04:20:16.326Z,2.15
2019-02-14T04:22:45.475Z,2.12
2019-02-14T04:25:14.849Z,2.18
2019-02-14T04:27:43.966Z,2.14
2019-02-14T04:30:13.839Z,2.04
2019-02-14T04:32:42.979Z,1.88
2019-02-14T04:35:12.103Z,1.96
2019-02-14T04:37:41.228Z,1.92
2019-02-14T04:40:12.666Z,1.83
2019-02-14T04:42:41.821Z,1.70
2019-02-14T04:45:12.002Z,1.67
2019-02-14T04:47:41.440Z,1.55
2019-02-14T04:50:11.395Z,1.52
2019-02-14T04:52:40.570Z,1.46
2019-02-14T04:55:11.690Z,1.37
2019-02-14T04:57:40.813Z,1.42
2019-02-14T05:00:14.602Z,1.65
2019-02-14T05:02:43.072Z,1.91
2019-02-14T05:05:12.077Z,2.03
2019-02-14T05:07:41.199Z,2.16
2019-02-14T05:10:11.505Z,2.25
2019-02-14T05:12:40.979Z,2.37
2019-02-14T05:15:11.271Z,2.42
2019-02-14T05:17:40.607Z,2.56
2019-02-14T05:20:10.884Z,2.56
2019-02-14T05:22:40.975Z,2.65
2019-02-14T05:25:10.237Z,2.70
2019-02-14T05:27:39.354Z,2.71
2019-02-14T05:30:13.946Z,2.77
2019-02-14T05:32:43.087Z,2.77
2019-02-14T05:35:12.201Z,2.83
2019-02-14T05:37:41.320Z,2.82
2019-02-14T05:40:11.091Z,2.79
2019-02-14T05:42:40.203Z,2.83
2019-02-14T05:45:11.148Z,2.81
2019-02-14T05:47:40.300Z,2.83
2019-02-14T05:50:11.918Z,2.80
2019-02-14T05:52:41.057Z,2.79
2019-02-14T05:55:11.405Z,2.75
2019-02-14T05:57:40.527Z,2.79
2019-02-14T06:00:12.371Z,2.76
2019-02-14T06:02:41.479Z,2.80
2019-02-14T06:05:10.597Z,2.80
2019-02-14T06:07:40.083Z,2.75
2019-02-14T06:10:10.437Z,2.76
2019-02-14T06:12:39.562Z,2.75
2019-02-14T06:15:10.977Z,2.67
2019-02-14T06:17:40.458Z,2.64
2019-02-14T06:20:10.828Z,2.73
2019-02-14T06:22:39.936Z,2.72
2019-02-14T06:25:11.263Z,2.73
2019-02-14T06:27:40.422Z,2.76
2019-02-14T06:30:12.759Z,2.75
2019-02-14T06:32:41.880Z,2.77
2019-02-14T06:35:11.439Z,2.72
2019-02-14T06:37:40.584Z,2.62
2019-02-14T06:40:11.527Z,2.48
2019-02-14T06:42:40.653Z,2.40
2019-02-14T06:45:12.689Z,2.30
2019-02-14T06:47:41.807Z,2.03
2019-02-14T06:50:10.993Z,2.06
2019-02-14T06:52:40.512Z,2.10
2019-02-14T06:55:10.211Z,2.21
2019-02-14T06:57:39.354Z,2.22
2019-02-14T07:00:16.024Z,2.30
2019-02-14T07:02:45.137Z,2.20
2019-02-14T07:05:14.258Z,2.24
2019-02-14T07:07:43.631Z,2.34
2019-02-14T07:10:13.291Z,2.38
2019-02-14T07:12:43.382Z,2.38
2019-02-14T07:15:13.530Z,2.44
2019-02-14T07:17:42.672Z,2.43
2019-02-14T07:20:14.113Z,2.48
2019-02-14T07:22:43.237Z,2.57
2019-02-14T07:25:12.637Z,2.50
2019-02-14T07:27:41.758Z,2.46
2019-02-14T07:30:16.498Z,2.46
2019-02-14T07:32:45.916Z,2.55
2019-02-14T07:35:15.316Z,2.61
2019-02-14T07:37:44.518Z,2.62
2019-02-14T07:40:14.489Z,2.68
2019-02-14T07:42:43.604Z,2.67
2019-02-14T07:45:17.619Z,2.74
2019-02-14T07:47:46.773Z,2.78
2019-02-14T07:50:15.892Z,2.82
2019-02-14T07:52:45.030Z,2.76
2019-02-14T07:55:15.212Z,2.77
2019-02-14T07:57:44.756Z,2.80
2019-02-14T08:00:18.285Z,2.85
2019-02-14T08:02:47.404Z,2.90
2019-02-14T08:05:16.516Z,2.89
2019-02-14T08:07:45.635Z,3.01
2019-02-14T08:10:18.911Z,3.04
2019-02-14T08:12:48.026Z,3.07
2019-02-14T08:15:17.151Z,3.11
2019-02-14T08:17:46.280Z,3.12
2019-02-14T08:20:17.347Z,3.15
2019-02-14T08:22:46.457Z,3.20
2019-02-14T08:25:15.641Z,3.22
2019-02-14T08:27:44.768Z,3.24
2019-02-14T08:30:17.690Z,3.28
2019-02-14T08:32:46.806Z,3.37
2019-02-14T08:35:15.951Z,3.40
2019-02-14T08:37:46.139Z,3.40
2019-02-14T08:40:32.341Z,3.44
2019-02-14T08:43:01.473Z,3.52
2019-02-14T08:45:30.995Z,3.53
2019-02-14T08:48:00.131Z,3.63
2019-02-14T08:50:29.255Z,3.61
2019-02-14T08:52:58.437Z,3.70
2019-02-14T08:55:27.595Z,3.73
2019-02-14T08:57:56.924Z,3.86
2019-02-14T09:00:26.310Z,3.88
2019-02-14T09:02:55.416Z,3.91
2019-02-14T09:05:24.536Z,3.99
2019-02-14T09:07:54.894Z,3.99
2019-02-14T09:10:24.146Z,4.02
2019-02-14T09:12:53.286Z,4.07
2019-02-14T09:15:22.424Z,4.08
2019-02-14T09:17:51.804Z,4.13
2019-02-14T09:20:21.806Z,4.14
2019-02-14T09:22:50.939Z,4.33
2019-02-14T09:25:20.073Z,4.40
2019-02-14T09:27:49.260Z,4.39
2019-02-14T09:30:18.445Z,4.49
2019-02-14T09:32:47.630Z,4.51
2019-02-14T09:35:16.754Z,4.58
2019-02-14T09:37:45.869Z,4.66
2019-02-14T09:40:18.012Z,4.72
2019-02-14T09:42:47.127Z,4.75
2019-02-14T09:45:16.310Z,4.86
2019-02-14T09:47:45.356Z,4.98
2019-02-14T09:50:14.932Z,5.03
2019-02-14T09:52:44.028Z,5.09
2019-02-14T09:55:13.905Z,5.09
2019-02-14T09:57:43.264Z,5.15
2019-02-14T10:00:19.081Z,5.27
2019-02-14T10:02:48.192Z,5.29
2019-02-14T10:05:17.342Z,5.32
2019-02-14T10:07:46.457Z,5.37
2019-02-14T10:10:19.884Z,5.41
2019-02-14T10:12:49.256Z,5.49
2019-02-14T10:15:18.377Z,5.57
2019-02-14T10:17:47.494Z,5.64
2019-02-14T10:20:17.284Z,5.74
2019-02-14T10:22:46.385Z,5.78
2019-02-14T10:25:15.498Z,5.87
2019-02-14T10:27:44.640Z,5.98
2019-02-14T10:30:16.101Z,6.00
2019-02-14T10:32:45.213Z,6.12
2019-02-14T10:35:14.573Z,6.18
2019-02-14T10:37:44.019Z,6.31
2019-02-14T10:40:14.776Z,6.37
2019-02-14T10:42:43.889Z,6.43
2019-02-14T10:45:20.526Z,6.53
2019-02-14T10:47:49.881Z,6.64
2019-02-14T10:50:19.004Z,6.74
2019-02-14T10:52:48.146Z,6.82
2019-02-14T10:55:17.240Z,6.92
2019-02-14T10:57:46.384Z,7.00
2019-02-14T11:00:25.691Z,7.12
2019-02-14T11:02:54.806Z,7.25
2019-02-14T11:05:23.977Z,7.30
2019-02-14T11:07:53.095Z,7.35
2019-02-14T11:10:22.813Z,7.44
2019-02-14T11:12:51.919Z,7.62
2019-02-14T11:15:24.947Z,7.78
2019-02-14T11:17:54.305Z,8.02
2019-02-14T11:20:23.667Z,8.22
2019-02-14T11:22:53.073Z,8.46
2019-02-14T11:25:28.353Z,8.75
2019-02-14T11:27:57.473Z,9.01
2019-02-14T11:30:26.616Z,9.24
2019-02-14T11:32:55.734Z,9.49
2019-02-14T11:35:24.855Z,9.75
2019-02-14T11:37:53.978Z,10.04
2019-02-14T11:40:23.138Z,10.27
2019-02-14T11:42:52.283Z,10.52
2019-02-14T11:45:22.749Z,10.84
2019-02-14T11:47:51.878Z,11.23
2019-02-14T11:50:20.994Z,11.45
2019-02-14T11:52:50.143Z,11.66
2019-02-14T11:55:19.256Z,11.85
2019-02-14T11:57:48.394Z,12.04
2019-02-14T12:00:23.124Z,12.26
2019-02-14T12:02:55.478Z,12.42
2019-02-14T12:05:23.061Z,12.30
2019-02-14T12:07:52.206Z,12.37
2019-02-14T12:10:21.714Z,12.28
2019-02-14T12:12:50.845Z,12.29
2019-02-14T12:15:19.959Z,12.29
2019-02-14T12:17:49.317Z,12.21
2019-02-14T12:20:18.435Z,12.26
2019-02-14T12:22:47.568Z,12.36
2019-02-14T12:25:30.832Z,12.53
2019-02-14T12:28:00.208Z,12.58
2019-02-14T12:30:29.330Z,12.72
2019-02-14T12:32:58.462Z,12.77
2019-02-14T12:35:27.593Z,12.76
2019-02-14T12:37:56.746Z,12.66
2019-02-14T12:40:25.843Z,12.82
2019-02-14T12:42:54.970Z,12.89
2019-02-14T12:45:27.330Z,12.96
2019-02-14T12:47:56.453Z,12.92
2019-02-14T12:50:25.573Z,13.03
2019-02-14T12:52:54.698Z,12.99
2019-02-14T12:55:23.820Z,12.96
2019-02-14T12:57:52.947Z,12.95
2019-02-14T13:00:23.240Z,12.91
2019-02-14T13:02:52.369Z,13.12
2019-02-14T13:05:21.508Z,13.41
2019-02-14T13:07:50.627Z,13.59
2019-02-14T13:10:19.763Z,13.85
2019-02-14T13:12:49.056Z,14.03
2019-02-14T13:15:23.326Z,14.29
2019-02-14T13:17:52.443Z,14.50
2019-02-14T13:20:21.569Z,14.75
2019-02-14T13:22:50.727Z,15.01
2019-02-14T13:25:20.069Z,15.15
2019-02-14T13:27:49.458Z,15.18
2019-02-14T13:30:21.490Z,15.28
2019-02-14T13:32:50.619Z,15.41
2019-02-14T13:35:20.051Z,15.66
2019-02-14T13:37:49.174Z,15.83
2019-02-14T13:40:18.527Z,16.05
2019-02-14T13:42:47.646Z,16.19
2019-02-14T13:45:19.946Z,16.27
2019-02-14T13:47:50.041Z,16.49
2019-02-14T13:50:19.391Z,16.62
2019-02-14T13:52:48.541Z,16.80
2019-02-14T13:55:17.670Z,17.02
2019-02-14T13:57:46.784Z,17.33
2019-02-14T14:00:19.761Z,17.52
2019-02-14T14:02:48.877Z,17.67
2019-02-14T14:05:18.293Z,17.99
2019-02-14T14:07:47.419Z,18.21
2019-02-14T14:10:16.545Z,18.33
2019-02-14T14:12:45.690Z,18.41
2019-02-14T14:15:14.800Z,18.38
2019-02-14T14:17:43.927Z,18.48
2019-02-14T14:20:13.047Z,18.52
2019-02-14T14:22:42.190Z,18.57
2019-02-14T14:25:12.298Z,18.68
2019-02-14T14:27:41.494Z,19.03
2019-02-14T14:30:12.806Z,19.19
2019-02-14T14:32:41.953Z,19.20
2019-02-14T14:35:11.526Z,19.14
2019-02-14T14:37:40.697Z,19.20
2019-02-14T14:40:17.155Z,19.08
2019-02-14T14:42:53.673Z,18.78
2019-02-14T14:45:36.656Z,18.44
2019-02-14T14:48:05.794Z,18.19
2019-02-14T14:50:35.154Z,17.98
2019-02-14T14:53:04.287Z,17.81
2019-02-14T14:55:33.407Z,17.51
2019-02-14T14:58:02.547Z,17.27
2019-02-14T15:00:31.691Z,17.06
2019-02-14T15:03:00.839Z,16.89
2019-02-14T15:05:29.961Z,16.61
2019-02-14T15:07:59.082Z,16.55
2019-02-14T15:10:28.208Z,16.40
2019-02-14T15:12:57.352Z,16.28
2019-02-14T15:15:26.475Z,16.09
2019-02-14T15:17:55.602Z,15.94
2019-02-14T15:20:24.728Z,15.86
2019-02-14T15:22:53.849Z,15.85
2019-02-14T15:25:22.968Z,15.76
2019-02-14T15:27:52.137Z,15.71
2019-02-14T15:30:21.266Z,15.61
2019-02-14T15:32:50.425Z,15.55
2019-02-14T15:35:19.555Z,15.43
2019-02-14T15:37:49.020Z,15.29
2019-02-14T15:40:18.142Z,15.22
2019-02-14T15:42:47.281Z,15.16
2019-02-14T15:45:16.402Z,15.13
2019-02-14T15:47:45.518Z,15.06
2019-02-14T15:50:14.652Z,15.04
2019-02-14T15:52:43.767Z,14.94
2019-02-14T15:55:12.896Z,14.88
2019-02-14T15:57:44.203Z,14.76
2019-02-14T16:00:13.782Z,14.71
2019-02-14T16:02:42.961Z,14.61
2019-02-14T16:05:12.091Z,14.53
2019-02-14T16:07:41.529Z,14.34
2019-02-14T16:10:18.102Z,14.20
2019-02-14T16:12:43.445Z,14.01
2019-02-14T16:15:12.435Z,13.86
2019-02-14T16:17:41.577Z,13.63
2019-02-14T16:20:10.694Z,13.43
2019-02-14T16:22:41.853Z,13.22
2019-02-14T16:25:10.960Z,13.01
2019-02-14T16:27:40.073Z,12.85
2019-02-14T16:30:10.985Z,12.66
2019-02-14T16:32:40.314Z,12.45
2019-02-14T16:35:09.444Z,12.23
2019-02-14T16:37:38.589Z,11.95
2019-02-14T16:40:09.555Z,11.74
2019-02-14T16:42:38.768Z,11.49
2019-02-14T16:45:08.467Z,11.31
2019-02-14T16:47:37.630Z,11.13
2019-02-14T16:50:08.927Z,10.91
2019-02-14T16:52:38.075Z,10.66
2019-02-14T16:55:07.795Z,10.46
2019-02-14T16:57:36.943Z,10.35
2019-02-14T17:00:09.336Z,10.05
2019-02-14T17:02:38.555Z,9.80
2019-02-14T17:05:09.895Z,9.56
2019-02-14T17:07:39.048Z,9.42
2019-02-14T17:10:10.577Z,9.14
2019-02-14T17:12:39.685Z,8.91
2019-02-14T17:15:10.365Z,8.80
2019-02-14T17:17:39.744Z,8.65
2019-02-14T17:20:10.536Z,8.52
2019-02-14T17:22:39.682Z,8.32
2019-02-14T17:25:08.809Z,8.18
2019-02-14T17:27:38.441Z,7.93
2019-02-14T17:30:09.305Z,7.80
2019-02-14T17:32:38.433Z,7.65
2019-02-14T17:35:12.588Z,7.48
2019-02-14T17:37:42.501Z,7.34
2019-02-14T17:40:11.908Z,7.23
2019-02-14T17:42:41.056Z,7.09
2019-02-14T17:45:10.380Z,6.94
2019-02-14T17:47:40.587Z,6.86
2019-02-14T17:50:09.712Z,6.79
2019-02-14T17:52:38.842Z,6.69
2019-02-14T17:55:09.871Z,6.67
2019-02-14T17:57:39.014Z,6.52
2019-02-14T18:00:14.228Z,6.45
2019-02-14T18:02:43.367Z,6.38
2019-02-14T18:05:12.541Z,6.30
2019-02-14T18:07:41.639Z,6.19
2019-02-14T18:10:12.398Z,6.21
2019-02-14T18:12:41.534Z,6.12
2019-02-14T18:15:12.687Z,6.03
2019-02-14T18:17:41.825Z,5.89
2019-02-14T18:20:11.327Z,5.77
2019-02-14T18:22:40.774Z,5.73
2019-02-14T18:25:11.338Z,5.66
2019-02-14T18:27:40.458Z,5.66
2019-02-14T18:30:12.765Z,5.63
2019-02-14T18:32:42.056Z,5.60
2019-02-14T18:35:12.219Z,5.49
2019-02-14T18:37:41.421Z,5.38
2019-02-14T18:40:11.268Z,5.30
2019-02-14T18:42:49.716Z,5.21
2019-02-14T18:45:19.916Z,5.15
2019-02-14T18:47:49.033Z,5.17
2019-02-14T18:50:18.173Z,5.12
2019-02-14T18:52:47.380Z,5.00
2019-02-14T18:55:18.301Z,4.96
2019-02-14T18:57:47.557Z,4.90
2019-02-14T19:00:18.018Z,4.83
2019-02-14T19:02:47.544Z,4.80
2019-02-14T19:05:16.695Z,4.72
2019-02-14T19:07:46.133Z,4.60
2019-02-14T19:10:16.595Z,4.55
2019-02-14T19:12:45.789Z,4.51
2019-02-14T19:15:15.984Z,4.44
2019-02-14T19:17:45.200Z,4.35
2019-02-14T19:20:14.340Z,4.29
2019-02-14T19:22:43.538Z,4.21
2019-02-14T19:25:12.664Z,4.17
2019-02-14T19:27:42.165Z,4.19
2019-02-14T19:30:12.201Z,4.16
2019-02-14T19:32:41.355Z,4.11
2019-02-14T19:35:10.446Z,4.08
2019-02-14T19:37:39.679Z,3.98
2019-02-14T19:40:08.982Z,3.93
2019-02-14T19:42:38.112Z,3.86
2019-02-14T19:45:09.365Z,3.80
2019-02-14T19:47:38.523Z,3.77
2019-02-14T19:50:11.875Z,3.75
2019-02-14T19:52:41.014Z,3.73
2019-02-14T19:55:10.172Z,3.70
2019-02-14T19:57:39.523Z,3.67
2019-02-14T20:00:14.128Z,3.63
2019-02-14T20:02:43.410Z,3.60
2019-02-14T20:05:13.467Z,3.58
2019-02-14T20:07:42.781Z,3.55
2019-02-14T20:10:15.385Z,3.48
2019-02-14T20:12:44.748Z,3.41
2019-02-14T20:15:21.544Z,3.39
2019-02-14T20:17:50.687Z,3.39
2019-02-14T20:20:19.811Z,3.35
2019-02-14T20:22:48.937Z,3.31
2019-02-14T20:25:23.971Z,3.24
2019-02-14T20:27:53.177Z,3.20
2019-02-14T20:30:22.301Z,3.19
2019-02-14T20:32:51.423Z,3.11
2019-02-14T20:35:20.554Z,3.05
2019-02-14T20:37:49.754Z,3.02
2019-02-14T20:40:18.956Z,2.98
2019-02-14T20:42:48.141Z,2.94
2019-02-14T20:45:17.257Z,2.93
2019-02-14T20:47:46.477Z,2.89
2019-02-14T20:50:16.047Z,2.87
2019-02-14T20:52:45.461Z,2.84
2019-02-14T20:55:21.363Z,2.80
2019-02-14T20:57:50.488Z,2.78
2019-02-14T21:00:26.918Z,2.76
2019-02-14T21:02:56.372Z,2.74
2019-02-14T21:05:25.789Z,2.69
2019-02-14T21:07:54.964Z,2.64
2019-02-14T21:10:26.634Z,2.60
2019-02-14T21:12:55.148Z,2.63
2019-02-14T21:15:24.279Z,2.63
2019-02-14T21:17:53.629Z,2.63
2019-02-14T21:20:22.762Z,2.62
2019-02-14T21:22:51.882Z,2.57
2019-02-14T21:25:23.417Z,2.49
2019-02-14T21:27:51.862Z,2.38
2019-02-14T21:30:21.006Z,2.33
2019-02-14T21:32:50.209Z,2.32
2019-02-14T21:35:19.347Z,2.29
2019-02-14T21:37:48.575Z,2.24
2019-02-14T21:40:19.145Z,2.23
2019-02-14T21:42:49.303Z,2.23
2019-02-14T21:45:18.557Z,2.19
2019-02-14T21:47:47.846Z,2.16
2019-02-14T21:50:18.151Z,2.13
2019-02-14T21:52:48.476Z,2.10
2019-02-14T21:55:17.816Z,2.07
2019-02-14T21:57:47.081Z,2.06
2019-02-14T22:00:23.038Z,2.00
2019-02-14T22:02:52.422Z,2.00
2019-02-14T22:05:25.160Z,1.97
2019-02-14T22:07:52.660Z,1.97
2019-02-14T22:10:21.869Z,2.00
2019-02-14T22:12:51.098Z,1.97
2019-02-14T22:15:22.946Z,1.95
2019-02-14T22:17:52.089Z,1.95
2019-02-14T22:20:21.185Z,1.97
2019-02-14T22:22:50.307Z,2.07
2019-02-14T22:25:19.443Z,2.07
2019-02-14T22:27:48.576Z,2.09
2019-02-14T22:30:18.385Z,2.14
2019-02-14T22:32:47.812Z,2.16
2019-02-14T22:35:17.000Z,2.20
2019-02-14T22:37:46.129Z,2.21
2019-02-14T22:40:15.307Z,2.23
2019-02-14T22:42:47.483Z,2.19
2019-02-14T22:45:16.253Z,2.17
2019-02-14T22:47:45.448Z,2.21
2019-02-14T22:50:14.869Z,2.32
2019-02-14T22:52:43.985Z,2.43
2019-02-14T22:55:13.773Z,2.55
2019-02-14T22:57:42.965Z,2.62
2019-02-14T23:00:23.111Z,2.69
2019-02-14T23:02:54.114Z,2.67
2019-02-14T23:05:23.229Z,2.62
2019-02-14T23:07:52.351Z,2.62
2019-02-14T23:10:21.461Z,2.60
2019-02-14T23:12:55.685Z,2.55
2019-02-14T23:15:21.400Z,2.58
2019-02-14T23:17:50.793Z,2.62
2019-02-14T23:20:19.963Z,2.60
2019-02-14T23:22:49.059Z,2.70
2019-02-14T23:25:18.480Z,2.82
2019-02-14T23:27:47.653Z,2.99
2019-02-14T23:30:16.769Z,3.24
2019-02-14T23:32:45.926Z,3.35
2019-02-14T23:35:15.041Z,3.49
2019-02-14T23:37:44.172Z,3.63
2019-02-14T23:40:13.280Z,3.65
2019-02-14T23:42:42.714Z,3.77
2019-02-14T23:45:11.797Z,3.75
2019-02-14T23:47:40.890Z,3.73
2019-02-14T23:50:10.910Z,3.63
2019-02-14T23:52:40.032Z,3.50
2019-02-14T23:55:09.430Z,3.33
2019-02-14T23:57:38.806Z,3.21
